createdAt,value
2017-05-13T00:00:08.110Z,15.94
2017-05-13T00:01:09.526Z,15.96
2017-05-13T00:02:10.958Z,15.97
2017-05-13T00:03:12.387Z,15.79
2017-05-13T00:04:13.816Z,15.78
2017-05-13T00:05:15.249Z,15.93
2017-05-13T00:06:16.680Z,16.00
2017-05-13T00:07:18.112Z,16.04
2017-05-13T00:08:19.548Z,15.86
2017-05-13T00:09:20.964Z,15.70
2017-05-13T00:10:22.399Z,15.63
2017-05-13T00:11:23.848Z,15.79
2017-05-13T00:12:25.283Z,16.07
2017-05-13T00:13:26.711Z,15.99
2017-05-13T00:14:28.150Z,16.03
2017-05-13T00:15:29.581Z,16.06
2017-05-13T00:16:31.011Z,16.11
2017-05-13T00:17:32.439Z,15.94
2017-05-13T00:18:33.872Z,15.79
2017-05-13T00:19:35.311Z,15.61
2017-05-13T00:20:36.738Z,15.67
2017-05-13T00:21:38.166Z,15.68
2017-05-13T00:22:39.592Z,15.57
2017-05-13T00:23:41.029Z,15.67
2017-05-13T00:24:42.447Z,15.81
2017-05-13T00:25:43.890Z,15.97
2017-05-13T00:26:45.317Z,15.97
2017-05-13T00:27:46.747Z,16.00
2017-05-13T00:28:48.175Z,15.92
2017-05-13T00:29:49.612Z,15.97
2017-05-13T00:30:51.042Z,16.12
2017-05-13T00:31:52.470Z,16.27
2017-05-13T00:32:53.903Z,16.20
2017-05-13T00:33:55.331Z,16.09
2017-05-13T00:34:56.761Z,16.04
2017-05-13T00:35:58.190Z,15.85
2017-05-13T00:36:59.617Z,15.88
2017-05-13T00:38:01.045Z,15.99
2017-05-13T00:39:02.484Z,15.97
2017-05-13T00:40:03.918Z,15.97
2017-05-13T00:41:05.339Z,15.89
2017-05-13T00:42:06.773Z,15.81
2017-05-13T00:43:08.201Z,15.66
2017-05-13T00:44:09.627Z,15.63
2017-05-13T00:45:11.066Z,15.66
2017-05-13T00:46:12.503Z,15.72
2017-05-13T00:47:13.933Z,15.66
2017-05-13T00:48:15.364Z,15.81
2017-05-13T00:49:16.789Z,15.82
2017-05-13T00:50:18.219Z,15.81
2017-05-13T00:51:19.643Z,15.68
2017-05-13T00:52:21.075Z,15.68
2017-05-13T00:53:22.498Z,15.67
2017-05-13T00:54:23.931Z,15.66
2017-05-13T00:55:25.362Z,15.60
2017-05-13T00:56:26.788Z,15.52
2017-05-13T00:57:28.220Z,15.52
2017-05-13T00:58:29.648Z,15.49
2017-05-13T00:59:31.073Z,15.52
2017-05-13T01:00:32.509Z,15.27
2017-05-13T01:01:33.933Z,14.98
2017-05-13T01:02:35.359Z,15.12
2017-05-13T01:03:36.816Z,15.24
2017-05-13T01:04:38.241Z,15.21
2017-05-13T01:05:39.673Z,15.27
2017-05-13T01:06:41.106Z,15.43
2017-05-13T01:07:42.526Z,15.12
2017-05-13T01:08:43.954Z,15.17
2017-05-13T01:09:45.397Z,14.99
2017-05-13T01:10:46.828Z,14.90
2017-05-13T01:11:48.256Z,14.98
2017-05-13T01:12:49.690Z,14.84
2017-05-13T01:13:51.120Z,14.84
2017-05-13T01:14:53.444Z,14.86
2017-05-13T01:15:54.875Z,15.09
2017-05-13T01:16:56.312Z,15.05
2017-05-13T01:17:57.743Z,15.06
2017-05-13T01:18:59.167Z,14.93
2017-05-13T01:20:00.594Z,14.95
2017-05-13T01:21:02.025Z,14.98
2017-05-13T01:22:03.452Z,14.99
2017-05-13T01:23:04.878Z,14.86
2017-05-13T01:24:06.304Z,14.75
2017-05-13T01:25:07.731Z,14.87
2017-05-13T01:26:09.163Z,14.75
2017-05-13T01:27:11.507Z,14.24
2017-05-13T01:28:12.933Z,14.54
2017-05-13T01:29:14.356Z,14.52
2017-05-13T01:30:15.788Z,14.57
2017-05-13T01:31:17.221Z,14.52
2017-05-13T01:32:18.663Z,14.04
2017-05-13T01:33:20.086Z,13.83
2017-05-13T01:34:22.226Z,13.96
2017-05-13T01:35:23.651Z,13.95
2017-05-13T01:36:26.024Z,14.19
2017-05-13T01:37:27.449Z,14.13
2017-05-13T01:38:28.872Z,14.10
2017-05-13T01:39:30.301Z,13.98
2017-05-13T01:40:31.730Z,14.06
2017-05-13T01:41:33.168Z,14.01
2017-05-13T01:42:34.599Z,14.01
2017-05-13T01:43:36.025Z,13.94
2017-05-13T01:44:37.452Z,13.94
2017-05-13T01:45:39.603Z,14.04
2017-05-13T01:46:41.031Z,14.01
2017-05-13T01:47:42.453Z,13.99
2017-05-13T01:48:43.880Z,13.87
2017-05-13T01:49:45.309Z,13.84
2017-05-13T01:50:46.742Z,13.84
2017-05-13T01:51:48.166Z,13.88
2017-05-13T01:52:49.588Z,13.83
2017-05-13T01:53:51.023Z,13.73
2017-05-13T01:54:52.445Z,13.69
2017-05-13T01:55:53.872Z,13.69
2017-05-13T01:56:55.293Z,13.71
2017-05-13T01:57:56.721Z,13.81
2017-05-13T01:58:58.146Z,13.89
2017-05-13T01:59:59.577Z,13.98
2017-05-13T02:01:01.009Z,13.87
2017-05-13T02:02:02.436Z,13.76
2017-05-13T02:03:03.858Z,13.62
2017-05-13T02:04:05.288Z,13.76
2017-05-13T02:05:06.713Z,13.71
2017-05-13T02:06:08.153Z,13.41
2017-05-13T02:07:09.581Z,13.54
2017-05-13T02:08:11.009Z,13.44
2017-05-13T02:09:12.432Z,13.46
2017-05-13T02:10:13.863Z,13.29
2017-05-13T02:11:15.288Z,13.30
2017-05-13T02:12:16.721Z,13.24
2017-05-13T02:13:18.152Z,13.03
2017-05-13T02:14:19.578Z,12.93
2017-05-13T02:15:20.996Z,13.09
2017-05-13T02:16:22.432Z,13.07
2017-05-13T02:17:23.863Z,13.21
2017-05-13T02:18:25.285Z,13.32
2017-05-13T02:19:26.708Z,13.41
2017-05-13T02:20:28.139Z,13.49
2017-05-13T02:21:29.569Z,13.46
2017-05-13T02:22:30.995Z,13.40
2017-05-13T02:23:32.422Z,13.43
2017-05-13T02:24:33.848Z,13.46
2017-05-13T02:25:35.276Z,13.51
2017-05-13T02:26:36.721Z,13.56
2017-05-13T02:27:38.158Z,13.30
2017-05-13T02:28:39.580Z,13.47
2017-05-13T02:29:41.009Z,13.47
2017-05-13T02:30:42.450Z,13.37
2017-05-13T02:31:43.874Z,13.36
2017-05-13T02:32:45.339Z,13.38
2017-05-13T02:33:46.739Z,13.52
2017-05-13T02:34:48.185Z,13.30
2017-05-13T02:35:49.610Z,13.44
2017-05-13T02:36:51.054Z,13.47
2017-05-13T02:37:52.485Z,13.44
2017-05-13T02:38:53.907Z,13.40
2017-05-13T02:39:55.332Z,13.52
2017-05-13T02:40:56.761Z,13.40
2017-05-13T02:41:58.189Z,13.22
2017-05-13T02:42:59.618Z,13.27
2017-05-13T02:44:01.045Z,13.24
2017-05-13T02:45:02.475Z,13.25
2017-05-13T02:46:03.900Z,13.41
2017-05-13T02:47:05.326Z,13.38
2017-05-13T02:48:06.766Z,13.36
2017-05-13T02:49:08.189Z,13.18
2017-05-13T02:50:09.607Z,13.14
2017-05-13T02:51:11.033Z,13.21
2017-05-13T02:52:12.463Z,13.40
2017-05-13T02:53:13.884Z,13.46
2017-05-13T02:54:15.314Z,13.44
2017-05-13T02:55:16.736Z,13.51
2017-05-13T02:56:18.165Z,13.52
2017-05-13T02:57:19.590Z,13.52
2017-05-13T02:58:21.024Z,13.51
2017-05-13T02:59:22.448Z,13.43
2017-05-13T03:00:23.872Z,13.40
2017-05-13T03:01:25.302Z,13.59
2017-05-13T03:02:26.728Z,13.51
2017-05-13T03:03:28.145Z,13.20
2017-05-13T03:04:29.571Z,12.93
2017-05-13T03:05:30.999Z,12.93
2017-05-13T03:06:32.421Z,13.17
2017-05-13T03:07:33.849Z,13.20
2017-05-13T03:08:35.278Z,13.15
2017-05-13T03:09:36.699Z,12.92
2017-05-13T03:10:38.129Z,12.92
2017-05-13T03:11:39.546Z,13.02
2017-05-13T03:12:40.969Z,13.03
2017-05-13T03:13:42.399Z,13.14
2017-05-13T03:14:43.830Z,13.38
2017-05-13T03:15:45.259Z,13.58
2017-05-13T03:16:46.695Z,13.46
2017-05-13T03:17:48.116Z,13.47
2017-05-13T03:18:49.543Z,13.61
2017-05-13T03:19:50.960Z,13.71
2017-05-13T03:20:52.409Z,13.67
2017-05-13T03:21:53.840Z,13.70
2017-05-13T03:22:55.267Z,13.71
2017-05-13T03:23:56.690Z,13.74
2017-05-13T03:24:58.122Z,13.95
2017-05-13T03:25:59.543Z,13.91
2017-05-13T03:27:00.957Z,13.76
2017-05-13T03:28:02.389Z,13.52
2017-05-13T03:29:03.824Z,13.67
2017-05-13T03:30:05.251Z,13.74
2017-05-13T03:31:06.680Z,13.81
2017-05-13T03:32:08.111Z,13.84
2017-05-13T03:33:09.539Z,13.88
2017-05-13T03:34:11.074Z,13.96
2017-05-13T03:35:12.496Z,13.83
2017-05-13T03:36:13.927Z,13.94
2017-05-13T03:37:15.364Z,13.83
2017-05-13T03:38:16.791Z,13.88
2017-05-13T03:39:18.243Z,13.83
2017-05-13T03:40:19.669Z,14.01
2017-05-13T03:41:21.099Z,13.96
2017-05-13T03:42:22.529Z,13.98
2017-05-13T03:43:23.959Z,14.10
2017-05-13T03:44:25.390Z,14.09
2017-05-13T03:45:26.939Z,14.09
2017-05-13T03:46:28.373Z,13.98
2017-05-13T03:47:29.796Z,14.02
2017-05-13T03:48:31.228Z,13.98
2017-05-13T03:49:32.664Z,13.99
2017-05-13T03:50:34.094Z,14.12
2017-05-13T03:51:35.522Z,14.13
2017-05-13T03:52:36.950Z,14.34
2017-05-13T03:53:38.450Z,13.96
2017-05-13T03:54:39.879Z,13.94
2017-05-13T03:55:41.321Z,13.99
2017-05-13T03:56:42.754Z,14.10
2017-05-13T03:57:44.178Z,14.28
2017-05-13T03:58:45.604Z,13.98
2017-05-13T03:59:47.068Z,14.01
2017-05-13T04:00:48.500Z,14.13
2017-05-13T04:01:49.929Z,13.84
2017-05-13T04:02:51.356Z,13.70
2017-05-13T04:03:52.782Z,13.92
2017-05-13T04:04:54.210Z,13.89
2017-05-13T04:05:55.634Z,13.84
2017-05-13T04:06:57.062Z,13.89
2017-05-13T04:07:58.493Z,13.73
2017-05-13T04:08:59.922Z,13.63
2017-05-13T04:10:01.354Z,13.56
2017-05-13T04:11:02.783Z,13.54
2017-05-13T04:12:04.212Z,13.49
2017-05-13T04:13:05.649Z,13.47
2017-05-13T04:14:07.081Z,13.52
2017-05-13T04:15:08.517Z,13.61
2017-05-13T04:16:09.953Z,13.88
2017-05-13T04:17:11.378Z,13.99
2017-05-13T04:18:12.804Z,13.94
2017-05-13T04:19:14.239Z,13.87
2017-05-13T04:20:15.670Z,13.92
2017-05-13T04:21:17.102Z,13.89
2017-05-13T04:22:18.539Z,13.70
2017-05-13T04:23:19.967Z,13.73
2017-05-13T04:24:21.400Z,13.84
2017-05-13T04:25:22.833Z,13.76
2017-05-13T04:26:24.266Z,13.88
2017-05-13T04:27:25.689Z,13.71
2017-05-13T04:28:27.119Z,13.80
2017-05-13T04:29:28.543Z,13.74
2017-05-13T04:30:29.975Z,13.65
2017-05-13T04:31:31.407Z,13.58
2017-05-13T04:32:32.838Z,13.52
2017-05-13T04:33:34.265Z,13.56
2017-05-13T04:34:35.701Z,13.46
2017-05-13T04:35:37.136Z,13.40
2017-05-13T04:36:38.561Z,13.44
2017-05-13T04:37:39.994Z,13.47
2017-05-13T04:38:41.425Z,13.47
2017-05-13T04:39:42.862Z,13.41
2017-05-13T04:40:44.292Z,13.55
2017-05-13T04:41:45.721Z,13.46
2017-05-13T04:42:48.952Z,13.52
2017-05-13T04:43:51.964Z,13.59
2017-05-13T04:44:53.396Z,13.71
2017-05-13T04:45:54.825Z,13.88
2017-05-13T04:46:56.257Z,14.10
2017-05-13T04:47:59.314Z,13.96
2017-05-13T04:48:59.895Z,13.88
2017-05-13T04:50:01.337Z,14.01
2017-05-13T04:51:02.764Z,14.20
2017-05-13T04:52:04.195Z,14.31
2017-05-13T04:53:05.620Z,14.31
2017-05-13T04:54:07.048Z,14.28
2017-05-13T04:55:08.474Z,14.50
2017-05-13T04:56:09.906Z,14.43
2017-05-13T04:57:11.338Z,14.57
2017-05-13T04:58:12.771Z,14.53
2017-05-13T04:59:14.204Z,14.56
2017-05-13T05:00:15.630Z,14.35
2017-05-13T05:01:17.066Z,14.42
2017-05-13T05:02:18.510Z,14.44
2017-05-13T05:03:19.932Z,14.69
2017-05-13T05:04:22.154Z,14.83
2017-05-13T05:05:23.587Z,14.67
2017-05-13T05:06:25.016Z,14.65
2017-05-13T05:07:26.444Z,14.68
2017-05-13T05:08:27.869Z,14.81
2017-05-13T05:09:29.302Z,14.91
2017-05-13T05:10:30.737Z,14.90
2017-05-13T05:11:32.167Z,15.08
2017-05-13T05:12:33.596Z,15.23
2017-05-13T05:13:35.029Z,15.33
2017-05-13T05:14:36.462Z,15.24
2017-05-13T05:15:37.891Z,15.19
2017-05-13T05:16:39.321Z,15.30
2017-05-13T05:17:40.757Z,15.48
2017-05-13T05:18:42.184Z,15.57
2017-05-13T05:19:43.614Z,15.52
2017-05-13T05:20:45.052Z,15.61
2017-05-13T05:21:46.492Z,15.56
2017-05-13T05:22:47.924Z,15.81
2017-05-13T05:23:49.356Z,15.70
2017-05-13T05:24:50.789Z,15.93
2017-05-13T05:25:52.226Z,15.99
2017-05-13T05:26:53.662Z,16.22
2017-05-13T05:27:55.082Z,16.30
2017-05-13T05:28:56.513Z,16.14
2017-05-13T05:29:57.946Z,16.20
2017-05-13T05:30:59.376Z,16.18
2017-05-13T05:32:00.810Z,16.37
2017-05-13T05:33:02.253Z,16.48
2017-05-13T05:34:03.685Z,16.48
2017-05-13T05:35:05.115Z,16.52
2017-05-13T05:36:06.548Z,16.38
2017-05-13T05:37:07.978Z,16.53
2017-05-13T05:38:09.402Z,16.67
2017-05-13T05:39:10.836Z,16.53
2017-05-13T05:40:12.267Z,16.55
2017-05-13T05:41:13.696Z,16.56
2017-05-13T05:42:15.123Z,16.59
2017-05-13T05:43:16.558Z,16.55
2017-05-13T05:44:17.994Z,16.71
2017-05-13T05:45:19.421Z,16.56
2017-05-13T05:46:20.851Z,16.65
2017-05-13T05:47:22.286Z,16.75
2017-05-13T05:48:23.717Z,16.85
2017-05-13T05:49:25.154Z,16.88
2017-05-13T05:50:26.588Z,16.96
2017-05-13T05:51:28.022Z,16.99
2017-05-13T05:52:29.459Z,16.99
2017-05-13T05:53:30.885Z,17.00
2017-05-13T05:54:32.318Z,17.14
2017-05-13T05:55:33.745Z,16.96
2017-05-13T05:56:35.174Z,17.06
2017-05-13T05:57:36.613Z,17.04
2017-05-13T05:58:38.042Z,17.29
2017-05-13T05:59:39.472Z,17.38
2017-05-13T06:00:40.911Z,17.43
2017-05-13T06:01:42.354Z,17.22
2017-05-13T06:02:43.775Z,17.07
2017-05-13T06:03:45.217Z,17.08
2017-05-13T06:04:46.648Z,17.04
2017-05-13T06:05:48.090Z,16.99
2017-05-13T06:06:49.519Z,17.08
2017-05-13T06:07:50.953Z,17.13
2017-05-13T06:08:52.389Z,17.13
2017-05-13T06:09:53.821Z,17.07
2017-05-13T06:10:55.257Z,17.00
2017-05-13T06:11:56.702Z,17.14
2017-05-13T06:12:58.141Z,17.06
2017-05-13T06:13:59.580Z,17.26
2017-05-13T06:15:01.009Z,17.25
2017-05-13T06:16:02.451Z,17.46
2017-05-13T06:17:03.885Z,17.33
2017-05-13T06:18:05.312Z,17.29
2017-05-13T06:19:06.745Z,17.46
2017-05-13T06:20:08.187Z,17.54
2017-05-13T06:21:09.622Z,17.46
2017-05-13T06:22:11.050Z,17.47
2017-05-13T06:23:12.481Z,17.50
2017-05-13T06:24:13.912Z,17.44
2017-05-13T06:25:15.356Z,17.53
2017-05-13T06:26:16.793Z,17.57
2017-05-13T06:27:18.227Z,17.70
2017-05-13T06:28:19.663Z,17.73
2017-05-13T06:29:21.089Z,17.76
2017-05-13T06:30:22.533Z,17.97
2017-05-13T06:31:23.967Z,17.87
2017-05-13T06:32:25.404Z,17.82
2017-05-13T06:33:26.832Z,17.81
2017-05-13T06:34:28.271Z,17.95
2017-05-13T06:35:29.710Z,18.06
2017-05-13T06:36:31.140Z,18.04
2017-05-13T06:37:32.573Z,17.99
2017-05-13T06:38:34.003Z,17.94
2017-05-13T06:39:35.435Z,17.89
2017-05-13T06:40:36.872Z,17.89
2017-05-13T06:41:38.307Z,17.84
2017-05-13T06:42:39.748Z,17.78
2017-05-13T06:43:41.178Z,17.78
2017-05-13T06:44:42.614Z,17.73
2017-05-13T06:45:44.051Z,17.76
2017-05-13T06:46:45.493Z,17.67
2017-05-13T06:47:46.928Z,17.70
2017-05-13T06:48:49.323Z,17.73
2017-05-13T06:49:49.752Z,17.70
2017-05-13T06:50:51.185Z,17.84
2017-05-13T06:51:52.619Z,17.81
2017-05-13T06:52:54.056Z,17.82
2017-05-13T06:53:55.490Z,17.87
2017-05-13T06:54:56.929Z,17.81
2017-05-13T06:55:58.370Z,17.81
2017-05-13T06:56:59.805Z,17.97
2017-05-13T06:58:01.236Z,17.76
2017-05-13T06:59:02.664Z,17.78
2017-05-13T07:00:04.100Z,17.64
2017-05-13T07:01:05.533Z,17.64
2017-05-13T07:02:06.968Z,17.54
2017-05-13T07:03:08.407Z,17.70
2017-05-13T07:04:09.830Z,17.74
2017-05-13T07:05:11.269Z,17.70
2017-05-13T07:06:12.700Z,17.78
2017-05-13T07:07:14.136Z,17.88
2017-05-13T07:08:15.565Z,17.78
2017-05-13T07:09:17.000Z,17.69
2017-05-13T07:10:18.427Z,17.79
2017-05-13T07:11:19.864Z,17.70
2017-05-13T07:12:21.292Z,17.62
2017-05-13T07:13:22.732Z,17.71
2017-05-13T07:14:24.169Z,17.84
2017-05-13T07:15:25.598Z,17.87
2017-05-13T07:16:27.036Z,17.76
2017-05-13T07:17:28.469Z,18.06
2017-05-13T07:18:29.910Z,18.29
2017-05-13T07:19:31.350Z,18.22
2017-05-13T07:20:32.782Z,18.33
2017-05-13T07:21:34.234Z,18.40
2017-05-13T07:22:35.670Z,18.43
2017-05-13T07:23:37.105Z,18.29
2017-05-13T07:24:38.541Z,18.42
2017-05-13T07:25:39.974Z,18.55
2017-05-13T07:26:41.398Z,18.54
2017-05-13T07:27:42.835Z,18.65
2017-05-13T07:28:44.278Z,18.80
2017-05-13T07:29:45.709Z,18.65
2017-05-13T07:30:47.144Z,18.84
2017-05-13T07:31:48.584Z,18.77
2017-05-13T07:32:50.025Z,18.97
2017-05-13T07:33:51.457Z,18.87
2017-05-13T07:34:52.893Z,18.59
2017-05-13T07:35:54.325Z,18.76
2017-05-13T07:36:55.762Z,18.84
2017-05-13T07:37:57.201Z,18.91
2017-05-13T07:38:58.631Z,18.91
2017-05-13T07:40:00.061Z,18.97
2017-05-13T07:41:01.498Z,18.92
2017-05-13T07:42:02.949Z,18.70
2017-05-13T07:43:04.424Z,18.80
2017-05-13T07:44:05.834Z,18.54
2017-05-13T07:45:07.260Z,18.76
2017-05-13T07:46:08.699Z,18.94
2017-05-13T07:47:10.132Z,18.65
2017-05-13T07:48:11.574Z,18.84
2017-05-13T07:49:13.008Z,18.84
2017-05-13T07:50:14.446Z,19.05
2017-05-13T07:51:15.875Z,18.90
2017-05-13T07:52:17.313Z,19.05
2017-05-13T07:53:18.744Z,18.95
2017-05-13T07:54:20.184Z,18.91
2017-05-13T07:55:21.623Z,19.13
2017-05-13T07:56:23.071Z,19.23
2017-05-13T07:57:24.503Z,19.02
2017-05-13T07:58:25.935Z,19.08
2017-05-13T07:59:27.371Z,19.13
2017-05-13T08:00:28.809Z,19.29
2017-05-13T08:01:30.252Z,19.25
2017-05-13T08:02:31.689Z,19.33
2017-05-13T08:03:33.121Z,19.55
2017-05-13T08:04:34.555Z,19.48
2017-05-13T08:05:35.983Z,19.53
2017-05-13T08:06:37.428Z,19.61
2017-05-13T08:07:38.843Z,19.65
2017-05-13T08:08:40.281Z,19.60
2017-05-13T08:09:41.707Z,19.58
2017-05-13T08:10:43.149Z,19.69
2017-05-13T08:11:44.584Z,19.97
2017-05-13T08:12:46.021Z,19.88
2017-05-13T08:13:47.454Z,20.08
2017-05-13T08:14:48.887Z,20.00
2017-05-13T08:15:50.334Z,19.80
2017-05-13T08:16:51.770Z,19.54
2017-05-13T08:17:53.207Z,19.58
2017-05-13T08:18:54.651Z,19.60
2017-05-13T08:19:56.083Z,19.69
2017-05-13T08:20:57.525Z,19.51
2017-05-13T08:21:58.959Z,19.72
2017-05-13T08:23:00.396Z,19.76
2017-05-13T08:24:01.842Z,19.63
2017-05-13T08:25:03.276Z,19.75
2017-05-13T08:26:04.722Z,19.68
2017-05-13T08:27:06.153Z,19.75
2017-05-13T08:28:07.589Z,19.61
2017-05-13T08:29:09.027Z,19.68
2017-05-13T08:30:10.468Z,19.87
2017-05-13T08:31:11.896Z,19.90
2017-05-13T08:32:13.336Z,19.84
2017-05-13T08:33:14.777Z,19.95
2017-05-13T08:34:16.208Z,20.03
2017-05-13T08:35:17.643Z,20.23
2017-05-13T08:36:19.081Z,20.39
2017-05-13T08:37:20.511Z,20.71
2017-05-13T08:38:21.954Z,20.64
2017-05-13T08:39:23.386Z,20.49
2017-05-13T08:40:24.838Z,20.61
2017-05-13T08:41:26.273Z,20.59
2017-05-13T08:42:27.709Z,20.56
2017-05-13T08:43:29.145Z,20.68
2017-05-13T08:44:30.583Z,20.86
2017-05-13T08:45:32.017Z,20.64
2017-05-13T08:46:33.462Z,20.62
2017-05-13T08:47:34.897Z,20.47
2017-05-13T08:48:36.332Z,20.41
2017-05-13T08:49:37.767Z,19.94
2017-05-13T08:50:39.210Z,20.00
2017-05-13T08:51:40.659Z,20.15
2017-05-13T08:52:42.697Z,20.27
2017-05-13T08:53:44.135Z,20.27
2017-05-13T08:54:45.581Z,20.35
2017-05-13T08:55:47.019Z,20.66
2017-05-13T08:56:48.455Z,20.71
2017-05-13T08:57:49.895Z,20.64
2017-05-13T08:58:51.333Z,20.83
2017-05-13T08:59:52.771Z,20.69
2017-05-13T09:00:54.210Z,20.66
2017-05-13T09:01:55.655Z,20.65
2017-05-13T09:02:57.097Z,20.33
2017-05-13T09:03:58.541Z,20.24
2017-05-13T09:04:59.976Z,20.09
2017-05-13T09:06:01.406Z,19.97
2017-05-13T09:07:02.842Z,19.63
2017-05-13T09:08:04.277Z,19.53
2017-05-13T09:09:05.713Z,19.42
2017-05-13T09:10:07.147Z,19.48
2017-05-13T09:11:08.588Z,19.39
2017-05-13T09:12:10.025Z,19.46
2017-05-13T09:13:11.460Z,19.53
2017-05-13T09:14:12.893Z,19.42
2017-05-13T09:15:14.332Z,19.50
2017-05-13T09:16:15.771Z,19.43
2017-05-13T09:17:17.211Z,19.39
2017-05-13T09:18:19.500Z,19.46
2017-05-13T09:19:20.940Z,19.50
2017-05-13T09:20:22.384Z,19.65
2017-05-13T09:21:23.828Z,19.86
2017-05-13T09:22:25.266Z,20.02
2017-05-13T09:23:26.701Z,20.25
2017-05-13T09:24:28.141Z,20.66
2017-05-13T09:25:29.573Z,20.58
2017-05-13T09:26:31.015Z,20.62
2017-05-13T09:27:32.456Z,20.64
2017-05-13T09:28:33.892Z,20.76
2017-05-13T09:29:35.334Z,20.66
2017-05-13T09:30:37.746Z,20.76
2017-05-13T09:31:39.180Z,20.56
2017-05-13T09:32:40.622Z,20.46
2017-05-13T09:33:42.069Z,20.47
2017-05-13T09:34:43.504Z,20.54
2017-05-13T09:35:44.939Z,20.64
2017-05-13T09:36:46.375Z,20.89
2017-05-13T09:37:47.817Z,21.13
2017-05-13T09:38:49.253Z,21.24
2017-05-13T09:39:50.690Z,21.50
2017-05-13T09:40:52.139Z,21.66
2017-05-13T09:41:53.577Z,21.42
2017-05-13T09:42:55.014Z,21.20
2017-05-13T09:43:56.450Z,21.01
2017-05-13T09:44:57.882Z,21.14
2017-05-13T09:45:59.325Z,21.13
2017-05-13T09:47:00.768Z,21.16
2017-05-13T09:48:02.204Z,20.98
2017-05-13T09:49:03.692Z,21.06
2017-05-13T09:50:05.076Z,21.09
2017-05-13T09:51:06.516Z,21.32
2017-05-13T09:52:07.961Z,21.29
2017-05-13T09:53:09.406Z,21.46
2017-05-13T09:54:10.840Z,21.64
2017-05-13T09:55:12.280Z,21.41
2017-05-13T09:56:13.718Z,21.69
2017-05-13T09:57:15.158Z,21.76
2017-05-13T09:58:16.607Z,21.66
2017-05-13T09:59:18.046Z,21.78
2017-05-13T10:00:19.477Z,21.78
2017-05-13T10:01:20.924Z,22.07
2017-05-13T10:02:22.366Z,22.20
2017-05-13T10:03:23.819Z,22.28
2017-05-13T10:04:25.253Z,22.01
2017-05-13T10:05:26.709Z,22.04
2017-05-13T10:06:28.157Z,22.29
2017-05-13T10:07:29.595Z,22.25
2017-05-13T10:08:31.034Z,22.20
2017-05-13T10:09:32.475Z,21.85
2017-05-13T10:10:33.912Z,21.64
2017-05-13T10:11:35.359Z,21.74
2017-05-13T10:12:36.798Z,21.98
2017-05-13T10:13:38.255Z,22.20
2017-05-13T10:14:39.680Z,22.16
2017-05-13T10:15:41.125Z,22.25
2017-05-13T10:16:42.566Z,22.16
2017-05-13T10:17:44.011Z,22.27
2017-05-13T10:18:45.460Z,22.27
2017-05-13T10:19:46.894Z,22.31
2017-05-13T10:20:48.331Z,22.29
2017-05-13T10:21:49.769Z,22.38
2017-05-13T10:22:51.208Z,22.53
2017-05-13T10:23:52.653Z,22.17
2017-05-13T10:24:54.087Z,21.79
2017-05-13T10:25:55.531Z,21.75
2017-05-13T10:26:56.984Z,21.74
2017-05-13T10:27:58.427Z,21.79
2017-05-13T10:28:59.866Z,21.69
2017-05-13T10:30:01.298Z,21.50
2017-05-13T10:31:02.776Z,21.71
2017-05-13T10:32:04.219Z,21.92
2017-05-13T10:33:05.652Z,21.83
2017-05-13T10:34:07.107Z,22.09
2017-05-13T10:35:08.547Z,22.23
2017-05-13T10:36:09.989Z,22.43
2017-05-13T10:37:11.430Z,22.41
2017-05-13T10:38:12.871Z,22.29
2017-05-13T10:39:14.329Z,22.20
2017-05-13T10:40:15.750Z,22.06
2017-05-13T10:41:17.197Z,21.67
2017-05-13T10:42:18.634Z,21.32
2017-05-13T10:43:20.073Z,21.29
2017-05-13T10:44:21.517Z,21.59
2017-05-13T10:45:22.955Z,21.83
2017-05-13T10:46:24.390Z,21.87
2017-05-13T10:47:25.839Z,22.13
2017-05-13T10:48:27.283Z,22.12
2017-05-13T10:49:28.717Z,22.10
2017-05-13T10:50:30.175Z,22.17
2017-05-13T10:51:31.616Z,22.14
2017-05-13T10:52:33.053Z,22.16
2017-05-13T10:53:34.498Z,22.17
2017-05-13T10:54:35.935Z,22.23
2017-05-13T10:55:37.377Z,22.35
2017-05-13T10:56:38.820Z,22.41
2017-05-13T10:57:40.256Z,22.39
2017-05-13T10:58:41.696Z,22.67
2017-05-13T10:59:43.204Z,22.60
2017-05-13T11:00:44.638Z,22.54
2017-05-13T11:01:47.661Z,22.29
2017-05-13T11:02:49.111Z,21.91
2017-05-13T11:03:50.546Z,21.90
2017-05-13T11:04:51.986Z,22.17
2017-05-13T11:05:53.424Z,22.20
2017-05-13T11:06:54.854Z,22.23
2017-05-13T11:07:56.298Z,22.17
2017-05-13T11:08:57.723Z,22.10
2017-05-13T11:09:59.200Z,21.94
2017-05-13T11:11:00.636Z,22.13
2017-05-13T11:12:02.076Z,22.04
2017-05-13T11:13:03.520Z,21.95
2017-05-13T11:14:04.962Z,21.76
2017-05-13T11:15:06.416Z,21.61
2017-05-13T11:16:07.861Z,21.76
2017-05-13T11:17:09.298Z,21.76
2017-05-13T11:18:10.742Z,21.63
2017-05-13T11:19:13.146Z,21.54
2017-05-13T11:20:14.585Z,21.50
2017-05-13T11:21:16.030Z,21.38
2017-05-13T11:22:17.464Z,21.44
2017-05-13T11:23:18.903Z,21.56
2017-05-13T11:24:20.355Z,21.69
2017-05-13T11:25:21.793Z,22.13
2017-05-13T11:26:23.231Z,22.47
2017-05-13T11:27:24.667Z,22.50
2017-05-13T11:28:26.105Z,22.10
2017-05-13T11:29:27.534Z,21.98
2017-05-13T11:30:28.972Z,22.38
2017-05-13T11:31:30.444Z,22.28
2017-05-13T11:32:31.839Z,22.22
2017-05-13T11:33:34.048Z,22.01
2017-05-13T11:34:34.650Z,22.16
2017-05-13T11:35:36.086Z,21.97
2017-05-13T11:36:37.524Z,21.95
2017-05-13T11:37:38.958Z,21.99
2017-05-13T11:38:40.397Z,21.76
2017-05-13T11:39:41.831Z,21.76
2017-05-13T11:40:43.274Z,21.54
2017-05-13T11:41:44.708Z,21.56
2017-05-13T11:42:46.156Z,21.57
2017-05-13T11:43:47.589Z,21.72
2017-05-13T11:44:49.044Z,22.10
2017-05-13T11:45:50.483Z,22.13
2017-05-13T11:46:51.919Z,21.98
2017-05-13T11:47:53.370Z,21.90
2017-05-13T11:48:54.806Z,22.07
2017-05-13T11:49:56.255Z,22.04
2017-05-13T11:50:57.698Z,22.04
2017-05-13T11:51:59.139Z,22.16
2017-05-13T11:53:00.578Z,22.29
2017-05-13T11:54:02.017Z,22.60
2017-05-13T11:55:03.453Z,22.83
2017-05-13T11:56:04.884Z,23.12
2017-05-13T11:57:06.328Z,23.08
2017-05-13T11:58:07.763Z,22.90
2017-05-13T11:59:09.208Z,22.89
2017-05-13T12:00:10.660Z,22.72
2017-05-13T12:01:12.095Z,22.41
2017-05-13T12:02:13.541Z,22.43
2017-05-13T12:03:14.997Z,22.54
2017-05-13T12:04:16.434Z,22.74
2017-05-13T12:05:17.881Z,23.02
2017-05-13T12:06:19.316Z,23.09
2017-05-13T12:07:20.751Z,23.32
2017-05-13T12:08:22.200Z,23.02
2017-05-13T12:09:23.643Z,22.87
2017-05-13T12:10:25.089Z,22.87
2017-05-13T12:11:26.530Z,22.59
2017-05-13T12:12:27.963Z,22.41
2017-05-13T12:13:29.401Z,22.28
2017-05-13T12:14:30.846Z,22.54
2017-05-13T12:15:32.284Z,22.60
2017-05-13T12:16:33.729Z,22.27
2017-05-13T12:17:35.162Z,22.17
2017-05-13T12:18:36.602Z,22.16
2017-05-13T12:19:38.064Z,22.16
2017-05-13T12:20:39.492Z,21.92
2017-05-13T12:21:40.930Z,21.72
2017-05-13T12:22:42.369Z,21.74
2017-05-13T12:23:43.810Z,21.87
2017-05-13T12:24:45.248Z,22.31
2017-05-13T12:25:46.696Z,22.27
2017-05-13T12:26:48.131Z,22.62
2017-05-13T12:27:49.569Z,22.47
2017-05-13T12:28:51.014Z,22.28
2017-05-13T12:29:52.448Z,22.13
2017-05-13T12:30:53.892Z,22.23
2017-05-13T12:31:55.329Z,22.22
2017-05-13T12:32:56.765Z,22.14
2017-05-13T12:33:58.210Z,22.22
2017-05-13T12:34:59.654Z,22.34
2017-05-13T12:36:01.105Z,22.43
2017-05-13T12:37:02.538Z,22.38
2017-05-13T12:38:03.977Z,22.71
2017-05-13T12:39:05.413Z,22.86
2017-05-13T12:40:06.853Z,22.89
2017-05-13T12:41:08.295Z,22.83
2017-05-13T12:42:09.733Z,22.77
2017-05-13T12:43:11.176Z,23.15
2017-05-13T12:44:12.614Z,23.55
2017-05-13T12:45:14.065Z,23.47
2017-05-13T12:46:15.501Z,23.50
2017-05-13T12:47:16.947Z,23.31
2017-05-13T12:48:18.384Z,23.46
2017-05-13T12:49:19.821Z,23.20
2017-05-13T12:50:21.256Z,22.90
2017-05-13T12:51:22.692Z,22.83
2017-05-13T12:52:24.133Z,22.75
2017-05-13T12:53:25.578Z,22.37
2017-05-13T12:54:27.020Z,22.35
2017-05-13T12:55:28.469Z,22.38
2017-05-13T12:56:29.909Z,22.25
2017-05-13T12:57:31.346Z,22.22
2017-05-13T12:58:32.787Z,22.93
2017-05-13T12:59:34.225Z,23.32
2017-05-13T13:00:35.667Z,23.67
2017-05-13T13:01:37.103Z,23.55
2017-05-13T13:02:38.553Z,23.39
2017-05-13T13:03:40.648Z,23.02
2017-05-13T13:04:42.087Z,22.83
2017-05-13T13:05:43.530Z,22.92
2017-05-13T13:06:44.964Z,22.74
2017-05-13T13:07:46.407Z,22.75
2017-05-13T13:08:47.848Z,22.64
2017-05-13T13:09:49.287Z,22.29
2017-05-13T13:10:50.731Z,22.28